Time;durP1;ratioP1;P1;durP2;ratioP2;P2;SDS_P1;SDS_P2;PMS_P1;PMS_P2;Temp;Humidity;BMP_temperature;BMP_pressure;BME280_temperature;BME280_humidity;BME280_pressure;Samples;Min_cycle;Max_cycle;Signal;HPM_P1;HPM_P2
2023/01/29 00:01:19;;;;;;;65.90;37.42;;;-1.90;76.50;;;;;;5076530;28;20415;-60
2023/01/29 00:03:46;;;;;;;69.10;37.45;;;-2.10;80.60;;;;;;5079251;28;20409;-61
2023/01/29 00:06:13;;;;;;;63.17;36.50;;;-2.20;90.70;;;;;;5074451;28;20463;-61
2023/01/29 00:08:39;;;;;;;67.95;37.00;;;-2.30;95.80;;;;;;5078582;28;20429;-60
2023/01/29 00:11:08;;;;;;;70.10;37.67;;;-2.20;99.40;;;;;;5075211;28;20424;-61
2023/01/29 00:13:35;;;;;;;67.85;37.53;;;-2.30;99.90;;;;;;5076947;28;20425;-61
2023/01/29 00:16:02;;;;;;;65.65;37.30;;;-2.20;99.90;;;;;;5082682;28;20421;-61
2023/01/29 00:18:31;;;;;;;68.18;38.30;;;-2.10;99.90;;;;;;5075562;28;20405;-61
2023/01/29 00:20:58;;;;;;;65.47;37.40;;;-2.20;99.90;;;;;;5081907;28;20908;-60
2023/01/29 00:23:26;;;;;;;67.90;37.78;;;-2.10;99.90;;;;;;5078561;28;20473;-61
2023/01/29 00:25:52;;;;;;;68.88;37.38;;;-2.30;99.90;;;;;;5077866;28;20427;-61
2023/01/29 00:28:19;;;;;;;72.10;39.38;;;-2.30;99.90;;;;;;5079732;28;20427;-61
2023/01/29 00:30:46;;;;;;;69.47;38.47;;;-2.30;99.90;;;;;;5077995;28;20962;-61
2023/01/29 00:33:12;;;;;;;69.00;38.63;;;-2.20;99.90;;;;;;5080588;28;20915;-61
2023/01/29 00:35:41;;;;;;;70.00;38.17;;;-2.20;99.90;;;;;;5080901;28;20445;-61
2023/01/29 00:38:08;;;;;;;69.25;38.63;;;-2.20;99.90;;;;;;5076562;28;20500;-61
2023/01/29 00:46:05;;;;;;;66.55;38.03;;;-2.10;99.90;;;;;;5082299;28;20425;-62
2023/01/29 00:48:32;;;;;;;68.93;39.10;;;-2.10;99.90;;;;;;5076086;28;20462;-62
2023/01/29 00:51:00;;;;;;;69.20;39.15;;;-2.10;99.90;;;;;;5080126;28;20418;-62
2023/01/29 00:53:27;;;;;;;67.95;37.88;;;-2.10;99.90;;;;;;5078540;28;20477;-62
2023/01/29 00:55:53;;;;;;;72.45;39.55;;;-2.20;99.90;;;;;;5083501;28;20413;-62
2023/01/29 00:58:21;;;;;;;73.05;39.50;;;-2.30;99.90;;;;;;5074463;28;20416;-62
2023/01/29 01:00:48;;;;;;;72.30;39.57;;;-2.30;99.90;;;;;;5079583;28;20427;-62
2023/01/29 01:03:14;;;;;;;74.30;39.15;;;-2.30;99.90;;;;;;5080330;28;20524;-62
2023/01/29 01:05:42;;;;;;;75.00;39.65;;;-2.30;99.90;;;;;;5081885;28;20403;-62
2023/01/29 01:10:59;;;;;;;68.72;37.97;;;-2.20;99.90;;;;;;5079078;28;20491;-62
2023/01/29 01:13:26;;;;;;;68.13;37.65;;;-2.00;99.90;;;;;;5076553;28;20425;-63
2023/01/29 01:15:53;;;;;;;67.40;38.30;;;-1.90;99.90;;;;;;5083183;28;20505;-62
2023/01/29 01:18:21;;;;;;;71.97;39.05;;;-1.90;99.40;;;;;;5078417;28;20417;-62
2023/01/29 01:20:50;;;;;;;71.28;38.67;;;-1.80;97.60;;;;;;5076366;28;20479;-61
2023/01/29 01:23:18;;;;;;;68.03;38.35;;;-1.80;94.50;;;;;;5074883;28;20411;-61
2023/01/29 01:25:46;;;;;;;70.93;40.03;;;-1.90;91.60;;;;;;5076887;28;20510;-61
2023/01/29 01:28:12;;;;;;;71.18;39.90;;;-2.00;85.90;;;;;;5075771;28;20453;-62
2023/01/29 01:30:39;;;;;;;77.93;40.30;;;-2.20;88.10;;;;;;5079695;28;20419;-63
2023/01/29 01:33:06;;;;;;;74.32;40.95;;;-2.30;95.20;;;;;;5077818;28;20892;-61
2023/01/29 01:35:33;;;;;;;76.47;41.28;;;-2.40;99.90;;;;;;5073554;28;20422;-61
2023/01/29 01:37:59;;;;;;;78.68;41.30;;;-2.50;99.90;;;;;;5079255;28;20440;-61
2023/01/29 01:40:28;;;;;;;78.70;41.60;;;-2.50;99.90;;;;;;5076509;28;20414;-61
2023/01/29 01:42:56;;;;;;;77.70;41.80;;;-2.50;99.90;;;;;;5080768;28;21004;-61
2023/01/29 01:45:26;;;;;;;79.93;42.00;;;-2.40;99.90;;;;;;5073316;28;20425;-62
2023/01/29 01:47:57;;;;;;;77.07;40.63;;;-2.40;99.90;;;;;;5080191;28;20424;-62
2023/01/29 01:50:29;;;;;;;76.95;41.40;;;-2.30;99.90;;;;;;5079869;28;20461;-61
2023/01/29 01:53:02;;;;;;;76.40;40.95;;;-2.30;99.90;;;;;;5077941;28;20428;-61
2023/01/29 01:55:33;;;;;;;74.35;40.58;;;-2.30;99.90;;;;;;5077503;28;20414;-61
2023/01/29 01:58:04;;;;;;;75.30;40.70;;;-2.30;99.90;;;;;;5080108;28;20422;-61
2023/01/29 02:00:31;;;;;;;78.35;41.83;;;-2.20;99.90;;;;;;5082290;28;20411;-61
2023/01/29 02:11:21;;;;;;;77.87;40.67;;;-2.30;99.90;;;;;;5075282;28;20403;-61
2023/01/29 02:13:52;;;;;;;85.90;43.37;;;-2.20;99.90;;;;;;5077514;28;20419;-62
2023/01/29 02:16:19;;;;;;;85.68;43.58;;;-2.30;99.90;;;;;;5077428;28;20425;-61
2023/01/29 02:18:46;;;;;;;82.85;44.28;;;-2.20;99.90;;;;;;5079420;28;20414;-61
2023/01/29 02:21:34;;;;;;;89.70;45.33;;;-2.30;99.90;;;;;;5078414;28;20437;-61
2023/01/29 02:24:26;;;;;;;81.28;41.47;;;-2.30;99.90;;;;;;5074897;28;20411;-62
2023/01/29 02:27:06;;;;;;;85.32;43.90;;;-2.20;99.90;;;;;;5078945;28;20814;-61
2023/01/29 02:29:47;;;;;;;81.50;42.40;;;-2.30;99.90;;;;;;5077834;28;20415;-61
2023/01/29 02:32:21;;;;;;;76.25;41.38;;;-2.20;99.90;;;;;;5073728;28;20892;-61
2023/01/29 02:37:53;;;;;;;79.55;41.80;;;-2.30;99.90;;;;;;5068173;28;20404;-61
2023/01/29 02:40:28;;;;;;;80.53;40.38;;;-2.30;99.90;;;;;;5076382;28;20415;-61
2023/01/29 02:43:06;;;;;;;82.63;42.78;;;-2.40;99.90;;;;;;5070840;28;20418;-62
2023/01/29 02:45:43;;;;;;;78.40;40.80;;;-2.40;99.90;;;;;;5074002;28;21014;-62
2023/01/29 02:48:16;;;;;;;77.03;40.65;;;-2.40;99.90;;;;;;5072359;28;20423;-62
2023/01/29 02:50:48;;;;;;;81.80;41.75;;;-2.20;99.90;;;;;;5072811;28;20419;-61
2023/01/29 02:53:17;;;;;;;79.95;41.75;;;-2.30;99.90;;;;;;5076117;28;20921;-61
2023/01/29 02:55:49;;;;;;;80.73;40.67;;;-2.40;99.90;;;;;;5071333;28;20418;-61
2023/01/29 02:58:20;;;;;;;80.53;42.50;;;-2.40;99.90;;;;;;5075611;28;20413;-61
2023/01/29 03:00:51;;;;;;;82.05;40.95;;;-2.40;99.90;;;;;;5079320;28;20430;-61
2023/01/29 03:03:20;;;;;;;81.80;42.17;;;-2.40;99.90;;;;;;5084517;28;20413;-61
2023/01/29 03:05:57;;;;;;;86.30;42.70;;;-2.50;99.90;;;;;;5081235;28;20900;-61
2023/01/29 03:08:36;;;;;;;77.53;40.80;;;-2.30;99.90;;;;;;5071377;28;20429;-61
2023/01/29 03:11:05;;;;;;;79.15;41.10;;;-2.30;99.90;;;;;;5081197;28;20419;-62
2023/01/29 03:13:40;;;;;;;79.63;41.35;;;-2.30;99.90;;;;;;5079666;28;20450;-61
2023/01/29 03:16:17;;;;;;;83.97;42.70;;;-2.40;99.90;;;;;;5077940;28;20406;-61
2023/01/29 03:18:49;;;;;;;82.05;42.72;;;-2.40;99.90;;;;;;5080005;28;20467;-61
2023/01/29 03:32:28;;;;;;;80.03;42.00;;;-2.50;99.90;;;;;;5078789;28;20473;-61
2023/01/29 03:35:00;;;;;;;81.72;41.55;;;-2.50;99.90;;;;;;5081342;28;20510;-61
2023/01/29 03:37:33;;;;;;;79.57;41.23;;;-2.50;99.90;;;;;;5076829;28;20478;-61
2023/01/29 03:40:00;;;;;;;75.47;39.03;;;-2.50;99.90;;;;;;5084772;28;20801;-62
2023/01/29 03:42:34;;;;;;;80.50;40.40;;;-2.50;99.90;;;;;;5082359;28;20417;-61
2023/01/29 03:45:07;;;;;;;82.03;42.22;;;-2.40;99.90;;;;;;5081437;28;20417;-61
2023/01/29 03:47:45;;;;;;;80.07;39.75;;;-2.50;99.90;;;;;;5080128;28;21460;-61
2023/01/29 03:50:23;;;;;;;76.80;41.13;;;-2.40;99.90;;;;;;5080331;28;20981;-61
2023/01/29 03:52:56;;;;;;;76.78;39.53;;;-2.30;99.90;;;;;;5071998;28;20832;-62
2023/01/29 03:55:28;;;;;;;74.17;39.20;;;-2.30;99.90;;;;;;5076690;28;20506;-61
2023/01/29 03:58:00;;;;;;;79.25;40.67;;;-2.30;99.90;;;;;;5081269;28;20426;-61
2023/01/29 04:00:30;;;;;;;74.47;40.20;;;-2.40;99.90;;;;;;5081464;28;20965;-61
2023/01/29 04:03:05;;;;;;;78.60;39.73;;;-2.30;99.90;;;;;;5080726;28;20575;-61
2023/01/29 04:05:39;;;;;;;74.95;40.30;;;-2.40;99.90;;;;;;5072864;28;20415;-61
2023/01/29 04:08:10;;;;;;;71.65;38.72;;;-2.40;99.90;;;;;;5075639;28;20419;-62
2023/01/29 04:10:39;;;;;;;73.65;37.97;;;-2.30;99.90;;;;;;5082684;28;20417;-61
2023/01/29 04:13:09;;;;;;;75.53;39.28;;;-2.40;99.90;;;;;;5077790;28;20422;-62
2023/01/29 04:15:41;;;;;;;71.95;38.70;;;-2.40;99.90;;;;;;5076164;28;20423;-61
2023/01/29 04:18:10;;;;;;;75.70;38.50;;;-2.40;99.90;;;;;;5077463;28;20829;-62
2023/01/29 04:20:38;;;;;;;72.95;38.08;;;-2.30;99.90;;;;;;5074184;28;20481;-61
2023/01/29 04:23:07;;;;;;;72.32;39.05;;;-2.20;99.90;;;;;;5084396;28;20407;-62
2023/01/29 04:25:42;;;;;;;74.18;37.72;;;-2.20;99.90;;;;;;5077861;28;20427;-61
2023/01/29 04:28:16;;;;;;;71.57;37.23;;;-2.20;99.90;;;;;;5075454;28;20433;-62
2023/01/29 04:30:52;;;;;;;72.85;38.50;;;-2.10;99.90;;;;;;5079294;28;20408;-62
2023/01/29 04:33:29;;;;;;;71.90;37.55;;;-2.10;99.90;;;;;;5080148;28;20952;-62
2023/01/29 04:36:10;;;;;;;74.05;38.42;;;-2.20;99.90;;;;;;5078986;28;20414;-62
2023/01/29 04:38:49;;;;;;;74.10;39.00;;;-2.30;99.90;;;;;;5075810;28;20892;-62
2023/01/29 04:41:22;;;;;;;73.15;37.53;;;-2.30;99.90;;;;;;5075865;28;20418;-62
2023/01/29 04:43:59;;;;;;;70.05;38.03;;;-2.20;99.90;;;;;;5077247;28;20512;-62
2023/01/29 04:46:31;;;;;;;73.22;37.83;;;-2.10;99.90;;;;;;5078664;28;20502;-61
2023/01/29 04:49:12;;;;;;;68.85;36.45;;;-2.10;99.90;;;;;;5077797;28;20426;-62
2023/01/29 04:51:48;;;;;;;70.28;37.17;;;-2.00;99.90;;;;;;5073354;28;20415;-62
2023/01/29 04:54:22;;;;;;;67.60;35.45;;;-2.00;99.90;;;;;;5079445;28;20420;-62
2023/01/29 04:56:55;;;;;;;71.18;36.95;;;-2.00;99.90;;;;;;5079080;28;21094;-62
2023/01/29 04:59:29;;;;;;;68.83;35.77;;;-1.90;99.90;;;;;;5078946;28;20410;-62
2023/01/29 05:01:55;;;;;;;66.88;36.20;;;-1.90;99.90;;;;;;5075211;28;20477;-62
2023/01/29 05:04:25;;;;;;;67.03;35.40;;;-1.90;99.90;;;;;;5076793;28;20770;-61
2023/01/29 05:06:53;;;;;;;70.95;35.95;;;-1.90;99.90;;;;;;5082098;28;20420;-61
2023/01/29 05:09:20;;;;;;;67.13;35.13;;;-1.90;99.90;;;;;;5076628;28;20449;-61
2023/01/29 05:11:48;;;;;;;64.97;36.03;;;-1.80;99.90;;;;;;5077509;28;20417;-62
2023/01/29 05:14:17;;;;;;;66.20;37.10;;;-1.80;99.90;;;;;;5078124;28;20429;-61
2023/01/29 05:16:47;;;;;;;66.37;36.10;;;-1.90;99.90;;;;;;5081457;28;20543;-62
2023/01/29 05:19:15;;;;;;;68.93;37.08;;;-2.00;99.90;;;;;;5071237;28;20473;-62
2023/01/29 05:21:45;;;;;;;66.43;35.17;;;-1.90;99.90;;;;;;5082400;28;20419;-62
2023/01/29 05:24:16;;;;;;;65.40;35.30;;;-1.90;99.90;;;;;;5079284;28;20472;-61
2023/01/29 05:29:28;;;;;;;63.65;33.08;;;-1.90;99.90;;;;;;5077957;28;20413;-61
2023/01/29 05:31:55;;;;;;;64.50;34.78;;;-1.90;99.90;;;;;;5079796;28;20417;-61
2023/01/29 05:34:22;;;;;;;63.97;33.83;;;-2.00;99.90;;;;;;5078594;28;20450;-61
2023/01/29 05:36:51;;;;;;;67.22;34.53;;;-2.00;99.90;;;;;;5077674;28;20460;-62
2023/01/29 05:39:18;;;;;;;61.65;33.17;;;-2.00;99.90;;;;;;5072495;28;20436;-62
2023/01/29 05:41:44;;;;;;;66.80;34.35;;;-2.00;99.90;;;;;;5074304;28;20451;-62
2023/01/29 05:44:11;;;;;;;65.50;34.30;;;-1.90;99.90;;;;;;5077398;28;20890;-61
2023/01/29 05:46:38;;;;;;;63.67;33.60;;;-1.90;99.90;;;;;;5080102;28;20457;-62
2023/01/29 05:49:05;;;;;;;62.92;34.08;;;-1.80;99.90;;;;;;5076820;28;20865;-62
2023/01/29 05:51:32;;;;;;;63.83;33.63;;;-1.70;99.90;;;;;;5073949;28;20848;-61
2023/01/29 05:54:00;;;;;;;66.13;34.47;;;-1.80;99.90;;;;;;5079290;28;20416;-62
2023/01/29 05:56:26;;;;;;;67.37;34.80;;;-1.90;99.90;;;;;;5077752;28;20889;-62
2023/01/29 05:58:53;;;;;;;65.43;34.92;;;-1.90;99.90;;;;;;5077401;28;20463;-62
2023/01/29 06:01:22;;;;;;;63.40;33.80;;;-1.90;99.90;;;;;;5080934;28;20455;-62
2023/01/29 06:03:49;;;;;;;65.30;34.95;;;-1.80;99.90;;;;;;5079755;28;20438;-61
2023/01/29 06:06:16;;;;;;;63.92;33.67;;;-1.80;99.90;;;;;;5076519;28;20431;-61
2023/01/29 06:08:43;;;;;;;64.70;33.80;;;-1.80;99.90;;;;;;5077264;28;20479;-61
2023/01/29 06:11:17;;;;;;;64.43;34.40;;;-1.70;99.90;;;;;;5079669;28;20868;-61
2023/01/29 06:13:44;;;;;;;65.45;34.20;;;-1.70;99.90;;;;;;5074607;28;20457;-62
2023/01/29 06:16:12;;;;;;;65.53;34.67;;;-1.60;99.90;;;;;;5077908;28;20422;-62
2023/01/29 06:18:39;;;;;;;63.60;33.42;;;-1.70;99.90;;;;;;5079110;28;20907;-60
2023/01/29 06:21:08;;;;;;;64.32;34.67;;;-1.70;99.90;;;;;;5080159;28;20416;-62
2023/01/29 06:23:35;;;;;;;65.47;35.23;;;-1.60;99.90;;;;;;5078001;28;20420;-62
2023/01/29 06:26:02;;;;;;;63.47;33.90;;;-1.70;99.90;;;;;;5072028;28;20988;-62
2023/01/29 06:28:31;;;;;;;62.65;33.88;;;-1.50;99.90;;;;;;5077392;28;20457;-62
2023/01/29 06:30:58;;;;;;;65.57;33.63;;;-1.60;99.90;;;;;;5075948;28;20411;-62
2023/01/29 06:33:25;;;;;;;61.03;33.47;;;-1.50;99.90;;;;;;5078394;28;20501;-62
2023/01/29 06:35:56;;;;;;;59.00;32.47;;;-1.40;99.90;;;;;;5072573;28;20894;-62
2023/01/29 06:38:23;;;;;;;61.90;33.10;;;-1.30;99.90;;;;;;5079830;28;20459;-62
2023/01/29 06:40:50;;;;;;;61.22;34.35;;;-1.10;99.90;;;;;;5074118;28;20422;-62
2023/01/29 06:43:17;;;;;;;62.97;35.25;;;-1.10;97.20;;;;;;5079161;28;20416;-64
2023/01/29 06:45:49;;;;;;;58.70;33.10;;;-1.10;94.50;;;;;;5074223;28;20426;-62
2023/01/29 06:48:16;;;;;;;62.45;34.53;;;-1.10;84.50;;;;;;5078569;28;20416;-62
2023/01/29 06:50:43;;;;;;;60.63;32.13;;;-1.30;90.40;;;;;;5078834;28;20411;-62
2023/01/29 06:53:10;;;;;;;64.40;34.93;;;-1.30;93.30;;;;;;5063176;28;20936;-62
2023/01/29 06:55:36;;;;;;;63.05;34.72;;;-1.40;94.40;;;;;;5074682;28;20428;-62
2023/01/29 06:58:05;;;;;;;64.63;33.53;;;-1.40;99.90;;;;;;5076696;28;20463;-62
2023/01/29 07:00:32;;;;;;;61.83;34.03;;;-1.30;99.90;;;;;;5080067;28;20487;-62
2023/01/29 07:03:00;;;;;;;62.67;33.17;;;-1.30;99.90;;;;;;5077378;28;20599;-62
2023/01/29 07:05:27;;;;;;;64.20;34.53;;;-1.30;99.90;;;;;;5078869;28;20414;-62
2023/01/29 07:07:54;;;;;;;66.18;35.95;;;-1.40;99.90;;;;;;5077854;28;20409;-62
2023/01/29 07:10:21;;;;;;;66.38;34.72;;;-1.40;99.90;;;;;;5079004;28;20424;-62
2023/01/29 07:12:47;;;;;;;63.37;35.23;;;-1.40;99.90;;;;;;5078104;28;20477;-62
2023/01/29 07:15:18;;;;;;;65.00;34.38;;;-1.40;99.90;;;;;;5071281;28;20427;-62
2023/01/29 07:17:45;;;;;;;65.28;36.10;;;-1.40;99.90;;;;;;5076156;28;20413;-62
2023/01/29 07:20:13;;;;;;;65.82;34.42;;;-1.40;99.90;;;;;;5075795;28;20433;-62
2023/01/29 07:22:40;;;;;;;64.78;35.10;;;-1.40;99.90;;;;;;5083123;28;21175;-62
2023/01/29 07:25:08;;;;;;;62.42;33.28;;;-1.30;99.90;;;;;;5072238;28;20420;-62
2023/01/29 07:27:34;;;;;;;59.50;32.95;;;-1.30;99.90;;;;;;5066108;28;20467;-63
2023/01/29 07:30:01;;;;;;;63.65;33.75;;;-1.40;99.90;;;;;;5074985;28;20477;-62
2023/01/29 07:32:28;;;;;;;66.88;34.38;;;-1.30;99.90;;;;;;5067459;28;20485;-61
2023/01/29 07:34:55;;;;;;;63.70;33.92;;;-1.20;99.90;;;;;;5081477;28;20419;-60
2023/01/29 07:37:23;;;;;;;62.28;33.55;;;-1.30;99.90;;;;;;5084580;28;20467;-61
2023/01/29 07:39:50;;;;;;;58.70;32.47;;;-1.30;99.90;;;;;;5082768;28;20414;-61
2023/01/29 07:42:17;;;;;;;64.15;34.35;;;-1.30;99.90;;;;;;5078472;28;20423;-60
2023/01/29 07:44:43;;;;;;;61.38;34.10;;;-1.30;99.90;;;;;;5072400;28;20478;-60
2023/01/29 07:47:10;;;;;;;61.67;33.60;;;-1.20;99.90;;;;;;5078238;28;20414;-61
2023/01/29 07:49:37;;;;;;;61.72;33.13;;;-1.20;99.90;;;;;;5078184;28;20451;-61
2023/01/29 07:52:03;;;;;;;63.17;34.10;;;-1.20;99.90;;;;;;5055289;28;20483;-58
2023/01/29 07:54:32;;;;;;;60.75;32.97;;;-1.20;99.90;;;;;;5081842;28;20421;-61
2023/01/29 07:56:58;;;;;;;63.30;34.03;;;-1.20;99.90;;;;;;5076106;28;20420;-61
2023/01/29 07:59:25;;;;;;;64.82;33.50;;;-1.10;99.90;;;;;;5080811;28;20418;-59
2023/01/29 08:01:52;;;;;;;59.80;32.30;;;-1.20;99.90;;;;;;5080186;28;20876;-60
2023/01/29 08:04:18;;;;;;;62.78;33.60;;;-1.20;99.90;;;;;;5084042;28;20768;-62
2023/01/29 08:06:45;;;;;;;60.20;33.53;;;-1.10;99.90;;;;;;5076270;28;20436;-60
2023/01/29 08:09:12;;;;;;;66.93;34.63;;;-1.10;99.90;;;;;;5081129;28;20427;-60
2023/01/29 08:11:40;;;;;;;62.35;33.72;;;-1.10;99.90;;;;;;5078122;28;21186;-61
2023/01/29 08:14:08;;;;;;;64.82;35.35;;;-1.00;99.90;;;;;;5083183;28;20406;-59
2023/01/29 08:16:34;;;;;;;63.55;34.72;;;-1.00;99.90;;;;;;5068521;28;20429;-60
2023/01/29 08:19:02;;;;;;;63.28;34.90;;;-0.90;99.90;;;;;;5076477;28;20461;-60
2023/01/29 08:21:28;;;;;;;65.03;34.30;;;-1.00;99.90;;;;;;5086477;28;20492;-62
2023/01/29 08:23:55;;;;;;;62.42;34.50;;;-1.00;99.90;;;;;;5076873;28;20411;-62
2023/01/29 08:26:22;;;;;;;67.13;35.42;;;-1.00;99.90;;;;;;5081061;28;20513;-60
2023/01/29 08:28:50;;;;;;;62.28;34.55;;;-1.00;99.90;;;;;;5075813;28;20418;-60
2023/01/29 08:31:19;;;;;;;65.57;35.60;;;-0.90;99.90;;;;;;5079592;28;20443;-60
2023/01/29 08:33:46;;;;;;;64.45;33.88;;;-0.90;99.90;;;;;;5076248;28;20774;-61
2023/01/29 08:36:13;;;;;;;62.70;34.95;;;-1.00;99.90;;;;;;5078140;28;20940;-62
2023/01/29 08:38:40;;;;;;;65.68;34.28;;;-0.90;99.90;;;;;;5083849;28;20419;-61
2023/01/29 08:41:07;;;;;;;66.03;35.50;;;-0.90;99.90;;;;;;5059538;28;20899;-60
2023/01/29 08:43:35;;;;;;;63.10;35.80;;;-0.80;99.90;;;;;;5083682;28;20747;-62
2023/01/29 08:46:04;;;;;;;65.18;35.55;;;-0.80;96.70;;;;;;5076433;28;20513;-61
2023/01/29 08:48:32;;;;;;;68.37;36.77;;;-0.90;99.90;;;;;;5091506;28;20422;-61
2023/01/29 08:50:59;;;;;;;67.27;37.03;;;-0.80;99.90;;;;;;5072231;28;20518;-61
2023/01/29 08:53:25;;;;;;;68.73;36.20;;;-0.80;99.90;;;;;;5079527;28;20407;-61
2023/01/29 08:55:53;;;;;;;64.47;36.13;;;-0.90;99.90;;;;;;5067861;28;20438;-61
2023/01/29 08:58:20;;;;;;;64.72;35.63;;;-0.90;99.90;;;;;;5091774;28;20984;-59
2023/01/29 09:00:46;;;;;;;67.65;37.05;;;-0.90;99.90;;;;;;5077004;28;20458;-61
2023/01/29 09:03:14;;;;;;;67.78;35.20;;;-0.80;99.90;;;;;;5084098;28;20413;-62
2023/01/29 09:05:41;;;;;;;68.90;35.78;;;-0.80;99.90;;;;;;5078670;28;20902;-61
2023/01/29 09:08:09;;;;;;;65.80;35.10;;;-0.80;99.90;;;;;;5081958;28;20793;-61
2023/01/29 09:10:36;;;;;;;64.93;36.03;;;-0.70;99.90;;;;;;5081824;28;20445;-60
2023/01/29 09:13:03;;;;;;;62.58;34.65;;;-0.70;98.20;;;;;;5082633;28;20414;-61
2023/01/29 09:15:30;;;;;;;63.60;35.42;;;-0.70;94.90;;;;;;5062226;28;20427;-60
2023/01/29 09:18:02;;;;;;;66.07;34.80;;;-0.60;98.20;;;;;;5083480;28;21397;-60
2023/01/29 09:20:30;;;;;;;62.70;35.25;;;-0.60;93.70;;;;;;5073045;28;20407;-61
2023/01/29 09:22:58;;;;;;;61.65;34.70;;;-0.70;92.10;;;;;;5076607;28;20403;-60
2023/01/29 09:25:24;;;;;;;61.70;32.78;;;-0.70;91.80;;;;;;5067639;28;20520;-62
2023/01/29 09:27:51;;;;;;;61.95;33.88;;;-0.60;89.50;;;;;;5080136;28;20430;-61
2023/01/29 09:30:18;;;;;;;64.30;33.95;;;-0.70;91.70;;;;;;5079765;28;20479;-60
2023/01/29 09:32:45;;;;;;;63.47;35.17;;;-0.60;97.10;;;;;;5073720;28;20425;-61
2023/01/29 09:35:12;;;;;;;60.17;33.63;;;-0.60;94.00;;;;;;5073508;28;20415;-61
2023/01/29 09:37:40;;;;;;;61.78;33.63;;;-0.50;91.90;;;;;;5072946;28;20416;-61
2023/01/29 09:40:16;;;;;;;59.47;34.30;;;-0.50;92.40;;;;;;5088416;28;20412;-62
2023/01/29 09:42:49;;;;;;;60.70;33.72;;;-0.40;90.70;;;;;;5072524;28;20434;-60
2023/01/29 09:45:21;;;;;;;58.35;33.17;;;-0.30;88.30;;;;;;5070638;28;20796;-59
2023/01/29 09:47:48;;;;;;;61.53;33.08;;;-0.30;72.00;;;;;;5077844;28;20415;-60
2023/01/29 09:50:20;;;;;;;61.50;32.47;;;-0.40;73.30;;;;;;5078107;28;20998;-61
2023/01/29 09:52:51;;;;;;;66.47;35.40;;;-0.40;78.20;;;;;;5078555;28;20418;-60
2023/01/29 09:55:24;;;;;;;63.15;33.92;;;-0.30;77.60;;;;;;5077129;28;20929;-60
2023/01/29 09:57:55;;;;;;;58.22;33.17;;;-0.30;71.90;;;;;;5063200;28;20425;-63
2023/01/29 10:00:25;;;;;;;61.42;33.13;;;-0.40;71.70;;;;;;5074413;28;20416;-61
2023/01/29 10:03:10;;;;;;;59.30;33.72;;;-0.30;73.10;;;;;;5070657;28;20760;-61
2023/01/29 10:06:12;;;;;;;59.15;33.55;;;-0.30;65.60;;;;;;5077224;28;20423;-60
2023/01/29 10:08:54;;;;;;;61.83;33.33;;;-0.40;64.10;;;;;;5071942;28;20482;-62
2023/01/29 10:11:29;;;;;;;64.38;35.75;;;-0.30;72.00;;;;;;5071674;28;21407;-61
2023/01/29 10:14:05;;;;;;;63.70;35.40;;;-0.30;76.50;;;;;;5061823;28;20817;-61
2023/01/29 10:16:48;;;;;;;61.60;34.13;;;-0.30;82.20;;;;;;5074287;28;20419;-61
2023/01/29 10:19:35;;;;;;;63.47;34.50;;;-0.30;76.50;;;;;;5076275;28;20415;-62
2023/01/29 10:22:22;;;;;;;63.88;34.92;;;-0.30;85.90;;;;;;5081826;28;20897;-60
2023/01/29 10:24:53;;;;;;;63.33;35.38;;;-0.40;85.80;;;;;;5070835;28;20415;-63
2023/01/29 10:27:20;;;;;;;61.25;33.53;;;-0.20;91.70;;;;;;5077020;28;20414;-62
2023/01/29 10:29:50;;;;;;;63.08;34.97;;;-0.20;83.00;;;;;;5082217;28;20939;-61
2023/01/29 10:32:20;;;;;;;64.07;34.38;;;-0.20;76.10;;;;;;5087175;28;20789;-61
2023/01/29 10:34:49;;;;;;;61.08;33.28;;;-0.10;76.80;;;;;;5078928;28;20409;-61
2023/01/29 10:37:20;;;;;;;64.05;34.15;;;-0.10;72.00;;;;;;5065601;28;20427;-61
2023/01/29 10:39:47;;;;;;;61.15;33.13;;;-0.10;73.20;;;;;;5074185;28;20882;-61
2023/01/29 10:42:24;;;;;;;60.33;33.10;;;-0.10;70.80;;;;;;5066180;28;20420;-61
2023/01/29 10:45:02;;;;;;;63.00;33.78;;;0.00;63.10;;;;;;5073502;28;20407;-61
2023/01/29 10:47:51;;;;;;;62.45;34.00;;;0.00;55.30;;;;;;5070235;28;20416;-62
2023/01/29 10:50:44;;;;;;;61.00;34.72;;;0.00;56.60;;;;;;5066516;28;20428;-60
2023/01/29 10:53:33;;;;;;;62.05;34.33;;;0.00;51.60;;;;;;5066681;28;20755;-62
2023/01/29 10:56:10;;;;;;;61.22;34.17;;;0.00;60.50;;;;;;5077085;28;20446;-62
2023/01/29 10:58:43;;;;;;;62.00;34.72;;;0.00;58.70;;;;;;5075346;28;20423;-63
2023/01/29 11:01:11;;;;;;;62.63;33.53;;;0.10;50.20;;;;;;5075443;28;20417;-61
2023/01/29 11:03:37;;;;;;;63.57;33.57;;;0.30;53.20;;;;;;5075103;28;20493;-63
2023/01/29 11:06:12;;;;;;;55.22;31.70;;;0.30;38.50;;;;;;5076433;28;20840;-64
2023/01/29 11:08:45;;;;;;;56.78;32.67;;;0.30;30.90;;;;;;5071066;28;20430;-63
2023/01/29 11:11:14;;;;;;;61.03;34.28;;;0.50;39.30;;;;;;5075960;28;20423;-63
2023/01/29 11:13:47;;;;;;;57.28;32.42;;;0.60;33.10;;;;;;5080312;28;20417;-58
2023/01/29 11:16:13;;;;;;;55.83;30.48;;;0.60;22.10;;;;;;5075099;28;20442;-60
2023/01/29 11:18:55;;;;;;;57.20;32.08;;;0.60;18.30;;;;;;5078304;28;20416;-60
2023/01/29 11:21:23;;;;;;;58.43;31.90;;;0.50;8.20;;;;;;5076879;28;20881;-62
2023/01/29 11:23:50;;;;;;;56.20;30.52;;;0.50;18.10;;;;;;5083000;28;20463;-61
2023/01/29 11:26:21;;;;;;;56.13;32.03;;;0.50;17.60;;;;;;5080274;28;20419;-63
2023/01/29 11:28:50;;;;;;;55.20;31.10;;;0.60;14.00;;;;;;5083513;28;20416;-61
2023/01/29 11:31:26;;;;;;;55.17;31.13;;;0.60;13.20;;;;;;5080203;28;20421;-63
2023/01/29 11:34:02;;;;;;;55.00;31.67;;;0.70;8.00;;;;;;5083460;28;20416;-60
2023/01/29 11:36:32;;;;;;;54.67;30.67;;;0.70;12.00;;;;;;5079178;28;20418;-61
2023/01/29 11:39:14;;;;;;;55.55;30.83;;;0.70;12.60;;;;;;5085793;28;21123;-62
2023/01/29 11:41:47;;;;;;;55.42;31.27;;;0.80;15.40;;;;;;5080633;28;20411;-62
2023/01/29 11:44:42;;;;;;;57.58;32.83;;;0.70;9.90;;;;;;5075732;28;20507;-62
2023/01/29 11:47:18;;;;;;;55.58;31.13;;;0.70;10.30;;;;;;5076355;28;20475;-62
2023/01/29 11:49:47;;;;;;;56.30;32.20;;;0.70;13.60;;;;;;5082756;28;20414;-62
2023/01/29 11:52:17;;;;;;;56.85;32.78;;;0.60;16.40;;;;;;5078262;28;20958;-63
2023/01/29 11:54:47;;;;;;;55.25;31.20;;;0.70;17.90;;;;;;5076275;28;20427;-61
2023/01/29 11:57:24;;;;;;;51.25;29.52;;;0.70;15.00;;;;;;5074849;28;20861;-63
2023/01/29 11:59:54;;;;;;;52.17;29.65;;;0.80;6.70;;;;;;5075631;28;20427;-63
2023/01/29 12:02:26;;;;;;;54.42;29.52;;;0.70;5.20;;;;;;5079571;28;20931;-63
2023/01/29 12:04:56;;;;;;;52.13;29.30;;;0.90;8.40;;;;;;5080328;28;20496;-62
2023/01/29 12:07:23;;;;;;;56.20;30.75;;;0.80;7.70;;;;;;5081032;28;20414;-63
2023/01/29 12:09:53;;;;;;;54.15;29.98;;;0.80;21.80;;;;;;5077728;28;20476;-63
2023/01/29 12:12:40;;;;;;;53.40;30.45;;;1.00;14.20;;;;;;5081867;28;20412;-64
2023/01/29 12:15:21;;;;;;;54.38;30.58;;;0.70;1.00;;;;;;5072203;28;20415;-62
2023/01/29 12:18:03;;;;;;;54.10;31.45;;;0.60;6.30;;;;;;5078687;28;20406;-63
2023/01/29 12:20:35;;;;;;;56.83;32.10;;;0.70;16.10;;;;;;5068681;28;20412;-61
2023/01/29 12:23:11;;;;;;;53.90;31.23;;;0.60;18.90;;;;;;5072928;28;20423;-65
2023/01/29 12:25:47;;;;;;;52.97;30.77;;;0.70;18.50;;;;;;5078289;28;20775;-64
2023/01/29 12:28:34;;;;;;;55.90;31.17;;;0.80;16.80;;;;;;5080444;28;20785;-64
2023/01/29 12:31:14;;;;;;;51.47;29.50;;;0.80;10.90;;;;;;5073673;28;20429;-63
2023/01/29 12:33:47;;;;;;;50.83;29.73;;;0.80;3.90;;;;;;5080452;28;20475;-62
2023/01/29 12:36:19;;;;;;;53.83;30.63;;;0.80;12.10;;;;;;5074845;28;20819;-61
2023/01/29 12:38:46;;;;;;;53.35;30.33;;;0.80;8.30;;;;;;5083525;28;20815;-62
2023/01/29 12:41:28;;;;;;;53.00;29.75;;;0.70;10.40;;;;;;5079501;28;20410;-62
2023/01/29 12:43:59;;;;;;;48.20;27.98;;;0.90;12.00;;;;;;5077859;28;20410;-62
2023/01/29 12:46:30;;;;;;;44.60;25.88;;;0.90;1.00;;;;;;5078216;28;20825;-63
2023/01/29 12:49:01;;;;;;;45.60;27.10;;;1.10;1.00;;;;;;5078804;28;20450;-63
2023/01/29 12:51:34;;;;;;;44.45;26.55;;;1.00;1.00;;;;;;5077639;28;20898;-63
2023/01/29 12:54:07;;;;;;;46.33;26.95;;;1.00;1.00;;;;;;5080972;28;20470;-62
2023/01/29 12:56:38;;;;;;;43.40;25.63;;;0.90;1.00;;;;;;5080022;28;20798;-61
2023/01/29 12:59:15;;;;;;;45.95;25.80;;;1.00;1.00;;;;;;5080325;28;20417;-63
2023/01/29 13:01:48;;;;;;;40.10;24.58;;;1.10;1.00;;;;;;5079192;28;20399;-62
2023/01/29 13:04:24;;;;;;;46.13;26.87;;;1.10;1.00;;;;;;5078932;28;20415;-62
2023/01/29 13:06:58;;;;;;;41.45;24.65;;;1.10;1.00;;;;;;5079710;28;20426;-63
2023/01/29 13:09:29;;;;;;;39.92;23.63;;;1.20;1.00;;;;;;5079040;28;20514;-62
2023/01/29 13:12:12;;;;;;;42.80;24.63;;;1.10;1.00;;;;;;5082945;28;20418;-61
2023/01/29 13:14:45;;;;;;;40.47;24.60;;;1.30;1.00;;;;;;5079529;28;20461;-63
2023/01/29 13:17:19;;;;;;;42.85;25.50;;;1.40;1.00;;;;;;5079566;28;20830;-61
2023/01/29 13:19:49;;;;;;;39.28;24.60;;;1.50;1.00;;;;;;5074617;28;20414;-62
2023/01/29 13:22:21;;;;;;;42.65;25.55;;;1.50;1.00;;;;;;5080315;28;20457;-61